Time;durP1;ratioP1;P1;durP2;ratioP2;P2;SDS_P1;SDS_P2;PMS_P1;PMS_P2;Temp;Humidity;BMP_temperature;BMP_pressure;BME280_temperature;BME280_humidity;BME280_pressure;Samples;Min_cycle;Max_cycle;Signal;HPM_P1;HPM_P2
2023/12/13 00:01:56;;;;;;;66.68;32.67;;;;;;;6.66;100.00;99178.50;4974226;28;20070;-74
2023/12/13 00:04:24;;;;;;;62.63;31.85;;;;;;;6.68;100.00;99172.34;4974652;28;20027;-74
2023/12/13 00:06:51;;;;;;;65.72;30.88;;;;;;;6.60;100.00;99171.94;4973272;28;20357;-74
2023/12/13 00:09:17;;;;;;;58.70;28.80;;;;;;;6.62;100.00;99183.59;4974494;28;20033;-73
2023/12/13 00:11:43;;;;;;;58.67;30.15;;;;;;;6.64;100.00;99171.72;4974521;28;20027;-73
2023/12/13 00:14:09;;;;;;;57.53;29.23;;;;;;;6.65;100.00;99173.31;4972988;28;20492;-73
2023/12/13 00:16:38;;;;;;;56.35;29.38;;;;;;;6.65;100.00;99167.63;4973861;28;20058;-73
2023/12/13 00:19:04;;;;;;;55.53;29.15;;;;;;;6.63;100.00;99158.84;4974006;28;20027;-74
2023/12/13 00:21:30;;;;;;;56.90;29.50;;;;;;;6.61;100.00;99152.88;4971952;28;20054;-74
2023/12/13 00:23:56;;;;;;;64.07;29.52;;;;;;;6.58;100.00;99151.03;4987925;28;20484;-74
2023/12/13 00:26:44;;;;;;;58.15;28.25;;;;;;;6.63;100.00;99134.06;4973082;28;20033;-73
2023/12/13 00:29:11;;;;;;;57.15;29.48;;;;;;;6.61;100.00;99136.63;4972914;28;20023;-74
2023/12/13 00:31:42;;;;;;;59.03;28.92;;;;;;;6.66;100.00;99141.59;4972954;28;20465;-72
2023/12/13 00:34:29;;;;;;;58.53;29.13;;;;;;;6.68;100.00;99140.31;4973030;28;20031;-73
2023/12/13 00:37:01;;;;;;;52.58;27.38;;;;;;;6.63;100.00;99142.56;4972910;28;20034;-73
2023/12/13 00:39:27;;;;;;;53.33;25.80;;;;;;;6.63;100.00;99142.56;4971615;28;20019;-73
2023/12/13 00:41:56;;;;;;;55.03;28.77;;;;;;;6.62;100.00;99135.34;4973146;28;20385;-74
2023/12/13 00:44:21;;;;;;;51.40;27.52;;;;;;;6.64;100.00;99135.63;4972384;28;20026;-74
2023/12/13 00:46:47;;;;;;;55.90;28.98;;;;;;;6.65;100.00;99127.88;4972035;28;20105;-74
2023/12/13 00:49:12;;;;;;;55.92;28.27;;;;;;;6.60;100.00;99126.53;4971926;28;20077;-74
2023/12/13 00:51:38;;;;;;;56.85;28.77;;;;;;;6.62;100.00;99132.50;4972254;28;20031;-74
2023/12/13 00:54:03;;;;;;;52.97;28.88;;;;;;;6.62;100.00;99123.22;4972209;28;20023;-74
2023/12/13 00:56:31;;;;;;;59.83;30.52;;;;;;;6.60;100.00;99126.53;4973371;28;20055;-73
2023/12/13 00:58:57;;;;;;;55.17;28.90;;;;;;;6.56;100.00;99125.97;4973931;28;20132;-73
2023/12/13 01:01:23;;;;;;;59.20;29.70;;;;;;;6.61;100.00;99128.09;4973723;28;20461;-72
2023/12/13 01:03:49;;;;;;;65.05;31.20;;;;;;;6.66;100.00;99130.25;4972670;28;20473;-73
2023/12/13 01:06:15;;;;;;;61.13;30.65;;;;;;;6.68;100.00;99119.16;4973677;28;20027;-73
2023/12/13 01:08:42;;;;;;;49.78;28.70;;;;;;;6.68;100.00;99117.63;4972294;28;20038;-75
2023/12/13 01:11:11;;;;;;;59.50;30.00;;;;;;;6.71;100.00;99119.44;4973736;28;20388;-74
2023/12/13 01:13:38;;;;;;;56.33;30.00;;;;;;;6.66;100.00;99118.88;4972556;28;20093;-75
2023/12/13 01:16:05;;;;;;;55.47;28.90;;;;;;;6.67;100.00;99111.16;4973671;28;20043;-74
2023/12/13 01:18:31;;;;;;;62.35;29.17;;;;;;;6.65;100.00;99111.66;4973691;28;20027;-73
2023/12/13 01:21:00;;;;;;;56.47;30.13;;;;;;;6.66;100.00;99115.25;4972977;28;20131;-73
2023/12/13 01:23:28;;;;;;;60.88;30.45;;;;;;;6.63;100.00;99108.50;4972814;28;20041;-73
2023/12/13 01:25:54;;;;;;;56.20;29.90;;;;;;;6.63;100.00;99102.84;4972529;28;20476;-72
2023/12/13 01:28:22;;;;;;;63.72;30.48;;;;;;;6.68;100.00;99107.03;4973663;28;20031;-72
2023/12/13 01:30:48;;;;;;;56.25;30.25;;;;;;;6.68;100.00;99104.97;4973840;28;20085;-73
2023/12/13 01:33:16;;;;;;;56.95;29.55;;;;;;;6.70;100.00;99093.13;4972634;28;20108;-72
2023/12/13 01:35:43;;;;;;;53.97;28.70;;;;;;;6.73;100.00;99094.19;4975748;28;20026;-74
2023/12/13 01:38:11;;;;;;;60.03;28.20;;;;;;;6.74;100.00;99101.41;4977364;28;20030;-74
2023/12/13 01:40:37;;;;;;;63.35;31.65;;;;;;;6.75;100.00;99086.75;4975852;28;20034;-73
2023/12/13 01:43:03;;;;;;;57.45;30.80;;;;;;;6.75;100.00;99086.75;4977389;28;20034;-73
2023/12/13 01:45:29;;;;;;;52.88;29.45;;;;;;;6.77;100.00;99086.25;4976761;28;20057;-73
2023/12/13 01:47:55;;;;;;;55.58;30.80;;;;;;;6.80;100.00;99088.09;4976909;28;20065;-74
2023/12/13 01:50:24;;;;;;;61.58;31.05;;;;;;;6.79;100.00;99070.25;4976718;28;20459;-72
2023/12/13 01:52:53;;;;;;;59.47;31.73;;;;;;;6.81;100.00;99072.63;4975799;28;20074;-73
2023/12/13 01:55:20;;;;;;;61.97;29.10;;;;;;;6.82;100.00;99077.81;4959443;28;20476;-73
2023/12/13 01:57:47;;;;;;;54.05;29.92;;;;;;;6.81;100.00;99067.72;4976576;28;20030;-73
2023/12/13 02:00:14;;;;;;;55.63;29.67;;;;;;;6.82;100.00;99065.66;4976775;28;20030;-73
2023/12/13 02:02:48;;;;;;;55.22;30.02;;;;;;;6.84;100.00;99063.09;4975198;28;20494;-73
2023/12/13 02:05:15;;;;;;;60.22;30.30;;;;;;;6.86;100.00;99071.91;4976231;28;20030;-74
2023/12/13 02:07:41;;;;;;;60.90;31.45;;;;;;;6.83;100.00;99078.59;4974229;28;20043;-73
2023/12/13 02:10:12;;;;;;;58.90;30.23;;;;;;;6.86;100.00;99074.75;4973899;28;20105;-74
2023/12/13 02:12:38;;;;;;;55.10;28.40;;;;;;;6.85;100.00;99078.84;4975397;28;20077;-72
2023/12/13 02:15:05;;;;;;;55.90;29.40;;;;;;;6.81;100.00;99062.03;4973536;28;20030;-73
2023/12/13 02:17:31;;;;;;;47.20;26.80;;;;;;;6.82;100.00;99057.94;5002929;28;20521;-74
2023/12/13 02:20:12;;;;;;;52.90;29.20;;;;;;;6.80;100.00;99056.84;5014032;28;20091;-75
2023/12/13 02:22:39;;;;;;;52.47;26.25;;;;;;;6.77;100.00;99052.97;4996681;28;20053;-73
2023/12/13 02:25:30;;;;;;;47.25;26.73;;;;;;;6.75;100.00;99051.88;5013875;28;20398;-74
2023/12/13 02:27:56;;;;;;;47.65;24.55;;;;;;;6.71;100.00;99042.81;4993702;28;20384;-74
2023/12/13 02:30:29;;;;;;;45.00;24.80;;;;;;;6.69;100.00;99048.97;5013889;28;20563;-74
2023/12/13 02:32:55;;;;;;;48.13;25.92;;;;;;;6.70;100.00;99038.41;4996589;28;20494;-74
2023/12/13 02:35:22;;;;;;;46.15;25.45;;;;;;;6.72;100.00;99045.16;5014293;28;20026;-73
2023/12/13 02:37:49;;;;;;;49.78;23.92;;;;;;;6.73;100.00;99043.09;4996848;28;20034;-75
2023/12/13 02:40:17;;;;;;;45.97;24.38;;;;;;;6.75;100.00;99038.47;5014371;28;20034;-74
2023/12/13 02:42:45;;;;;;;47.03;25.00;;;;;;;6.70;100.00;99042.03;5013391;28;20357;-74
2023/12/13 02:45:12;;;;;;;50.30;25.13;;;;;;;6.68;100.00;99036.84;5013840;28;20368;-72
2023/12/13 02:47:46;;;;;;;49.00;23.48;;;;;;;6.72;100.00;99030.19;5014141;28;20061;-73
2023/12/13 02:50:13;;;;;;;46.80;24.55;;;;;;;6.68;100.00;99038.13;5014840;28;20032;-73
2023/12/13 02:52:39;;;;;;;51.00;24.75;;;;;;;6.66;100.00;99024.44;5013653;28;20038;-74
2023/12/13 02:55:06;;;;;;;44.63;22.83;;;;;;;6.64;100.00;99013.56;5014614;28;20026;-72
2023/12/13 02:57:32;;;;;;;42.33;21.92;;;;;;;6.73;100.00;99026.06;5014960;28;20045;-74
2023/12/13 02:59:57;;;;;;;45.83;23.70;;;;;;;6.70;100.00;99016.47;5014991;28;20456;-76
2023/12/13 03:02:24;;;;;;;40.72;23.02;;;;;;;6.71;100.00;99018.03;5014700;28;20030;-74
2023/12/13 03:04:51;;;;;;;44.90;21.45;;;;;;;6.74;100.00;99022.72;5013434;28;20029;-73
2023/12/13 03:07:16;;;;;;;42.40;21.35;;;;;;;6.73;100.00;99009.81;5015139;28;20108;-72
2023/12/13 03:09:43;;;;;;;44.95;21.48;;;;;;;6.71;100.00;99011.59;5015496;28;20107;-72
2023/12/13 03:12:13;;;;;;;40.58;20.75;;;;;;;6.75;100.00;99014.97;5014417;28;20447;-74
2023/12/13 03:14:38;;;;;;;44.63;21.15;;;;;;;6.76;100.00;99008.03;5013688;28;20037;-76
2023/12/13 03:17:05;;;;;;;42.35;21.85;;;;;;;6.77;100.00;99007.53;5013733;28;20046;-74
2023/12/13 03:19:31;;;;;;;42.40;19.30;;;;;;;6.76;100.00;98993.84;5014148;28;20038;-74
2023/12/13 03:21:58;;;;;;;40.42;21.30;;;;;;;6.77;100.00;98989.72;5013548;28;20033;-74
2023/12/13 03:24:24;;;;;;;39.70;19.83;;;;;;;6.75;100.00;98986.59;5013312;28;20033;-74
2023/12/13 03:26:50;;;;;;;44.22;19.98;;;;;;;6.77;100.00;98984.84;5013897;28;20132;-72
2023/12/13 03:29:17;;;;;;;37.20;19.80;;;;;;;6.77;100.00;98969.84;5013888;28;20403;-74
2023/12/13 03:31:43;;;;;;;38.17;19.92;;;;;;;6.76;100.00;98974.75;5012746;28;20034;-74
2023/12/13 03:34:09;;;;;;;44.70;20.50;;;;;;;6.73;100.00;98970.09;5012635;28;20463;-73
2023/12/13 03:36:35;;;;;;;40.20;20.92;;;;;;;6.75;100.00;98964.66;5013810;28;20040;-72
2023/12/13 03:39:02;;;;;;;43.10;21.42;;;;;;;6.72;100.00;98970.56;5013547;28;20046;-71
2023/12/13 03:41:30;;;;;;;39.47;20.65;;;;;;;6.69;100.00;98966.66;5013740;28;20037;-72
2023/12/13 03:43:58;;;;;;;35.40;20.33;;;;;;;6.70;100.00;98956.09;5013816;28;20379;-72
2023/12/13 03:46:25;;;;;;;37.45;20.73;;;;;;;6.72;100.00;98957.16;5013734;28;20026;-72
2023/12/13 03:48:51;;;;;;;39.80;19.65;;;;;;;6.71;100.00;98961.28;5012427;28;20513;-72
2023/12/13 03:51:18;;;;;;;36.72;19.65;;;;;;;6.68;100.00;98962.28;5013581;28;20119;-72
2023/12/13 03:53:45;;;;;;;37.95;20.13;;;;;;;6.68;100.00;98960.19;5013741;28;20537;-72
2023/12/13 03:56:13;;;;;;;40.95;21.70;;;;;;;6.70;100.00;98956.88;5013499;28;20025;-71
2023/12/13 03:58:47;;;;;;;43.20;19.63;;;;;;;6.72;100.00;98956.38;5013223;28;20364;-71
2023/12/13 04:01:13;;;;;;;38.15;19.65;;;;;;;6.66;100.00;98948.59;5013404;28;20116;-73
2023/12/13 04:03:38;;;;;;;35.63;19.50;;;;;;;6.68;100.00;98947.31;5013361;28;20132;-71
2023/12/13 04:06:06;;;;;;;42.22;19.92;;;;;;;6.66;100.00;98942.91;5013233;28;20073;-71
2023/12/13 04:08:33;;;;;;;36.67;19.80;;;;;;;6.68;100.00;98945.25;4995700;28;20463;-73
2023/12/13 04:11:00;;;;;;;41.40;19.25;;;;;;;6.72;100.00;98951.50;5013422;28;20033;-71
2023/12/13 04:13:26;;;;;;;39.53;19.48;;;;;;;6.74;100.00;98948.13;5011937;28;20076;-72
2023/12/13 04:15:52;;;;;;;40.95;19.42;;;;;;;6.77;100.00;98941.47;5012998;28;20064;-71
2023/12/13 04:18:17;;;;;;;37.85;20.08;;;;;;;6.80;100.00;98946.91;5011935;28;20411;-73
2023/12/13 04:20:44;;;;;;;38.92;19.00;;;;;;;6.81;100.00;98944.84;5012025;28;20041;-72
2023/12/13 04:23:10;;;;;;;40.33;19.23;;;;;;;6.84;100.00;98944.63;5028621;28;20026;-73
2023/12/13 04:25:38;;;;;;;43.38;18.23;;;;;;;6.88;100.00;98945.19;5013334;28;20356;-72
2023/12/13 04:28:04;;;;;;;39.80;19.75;;;;;;;6.90;100.00;98947.53;5013261;28;20072;-73
2023/12/13 04:30:31;;;;;;;36.67;19.08;;;;;;;6.92;100.00;98953.50;5011841;28;20121;-72
2023/12/13 04:32:58;;;;;;;40.03;20.90;;;;;;;6.89;100.00;98951.66;5013293;28;20034;-71
2023/12/13 04:35:24;;;;;;;39.70;19.48;;;;;;;6.87;100.00;98940.03;5011735;28;20084;-73
2023/12/13 04:37:49;;;;;;;38.72;19.55;;;;;;;6.87;100.00;98942.88;5013188;28;20046;-73
2023/12/13 04:40:15;;;;;;;39.30;19.80;;;;;;;6.86;100.00;98935.63;5013070;28;20533;-72
2023/12/13 04:42:40;;;;;;;38.78;20.00;;;;;;;6.89;100.00;98940.28;5013032;28;20041;-73
2023/12/13 04:45:09;;;;;;;43.20;19.75;;;;;;;6.84;100.00;98926.81;5012738;28;20026;-72
2023/12/13 04:47:35;;;;;;;38.75;20.38;;;;;;;6.87;100.00;98929.44;5012955;28;20157;-72
2023/12/13 04:50:03;;;;;;;41.42;19.13;;;;;;;6.86;100.00;98916.53;5013127;28;20026;-73
2023/12/13 04:52:30;;;;;;;42.28;19.92;;;;;;;6.85;100.00;98914.19;5012933;28;20037;-72
2023/12/13 04:54:57;;;;;;;48.78;20.25;;;;;;;6.86;100.00;98904.38;5012777;28;20022;-73
2023/12/13 04:57:23;;;;;;;44.47;21.63;;;;;;;6.87;100.00;98911.63;5013026;28;20030;-73
2023/12/13 04:59:48;;;;;;;36.42;19.40;;;;;;;6.89;100.00;98918.34;5013050;28;20164;-71
2023/12/13 05:02:16;;;;;;;35.13;18.90;;;;;;;6.92;100.00;98903.16;5012794;28;20672;-72
2023/12/13 05:04:42;;;;;;;43.45;21.08;;;;;;;6.89;100.00;98901.31;5012846;28;20076;-72
2023/12/13 05:07:08;;;;;;;38.92;19.25;;;;;;;6.89;100.00;98900.53;5012815;28;20410;-71
2023/12/13 05:09:42;;;;;;;43.67;19.83;;;;;;;6.91;100.00;98898.78;4995356;28;20061;-73
2023/12/13 05:12:08;;;;;;;35.45;19.73;;;;;;;6.89;100.00;98895.63;5015365;28;20117;-73
2023/12/13 05:14:33;;;;;;;41.20;20.75;;;;;;;6.90;100.00;98890.75;5015357;28;20113;-75
2023/12/13 05:16:58;;;;;;;43.03;19.75;;;;;;;6.92;100.00;98899.56;5014885;28;20097;-72
2023/12/13 05:19:25;;;;;;;39.60;19.80;;;;;;;6.92;100.00;98894.66;5016372;28;20118;-73
2023/12/13 05:21:50;;;;;;;44.60;19.67;;;;;;;6.90;100.00;98894.38;5016190;28;20053;-72
2023/12/13 05:24:17;;;;;;;38.50;20.40;;;;;;;6.94;100.00;98896.97;5016126;28;20383;-72
2023/12/13 05:26:43;;;;;;;35.55;18.77;;;;;;;6.93;100.00;98893.34;5015978;28;20046;-72
2023/12/13 05:29:09;;;;;;;40.33;20.45;;;;;;;6.95;100.00;98890.00;5016403;28;20037;-74
2023/12/13 05:31:35;;;;;;;37.20;20.25;;;;;;;6.91;100.00;98889.47;5016296;28;20076;-72
2023/12/13 05:34:01;;;;;;;36.75;20.38;;;;;;;6.89;100.00;98878.59;5014782;28;20077;-73
2023/12/13 05:36:28;;;;;;;38.78;21.33;;;;;;;6.88;100.00;98877.03;4998591;28;20058;-72
2023/12/13 05:38:56;;;;;;;38.85;19.35;;;;;;;6.88;100.00;98879.88;5016188;28;20037;-73
2023/12/13 05:41:22;;;;;;;42.72;20.90;;;;;;;6.91;100.00;98880.94;5016050;28;20107;-72
2023/12/13 05:43:49;;;;;;;39.72;20.33;;;;;;;6.87;100.00;98869.81;5015968;28;20025;-73
2023/12/13 05:46:14;;;;;;;36.33;20.33;;;;;;;6.86;100.00;98865.44;5014612;28;20034;-73
2023/12/13 05:48:42;;;;;;;41.08;20.13;;;;;;;6.87;100.00;98866.22;5015078;28;20356;-77
2023/12/13 05:51:07;;;;;;;38.72;19.35;;;;;;;6.87;100.00;98867.00;5015965;28;20079;-73
2023/12/13 05:53:36;;;;;;;33.42;19.65;;;;;;;6.84;100.00;98864.34;5015488;28;20395;-74
2023/12/13 05:56:05;;;;;;;40.58;18.38;;;;;;;6.82;100.00;98866.94;5015118;28;20018;-75
2023/12/13 05:58:30;;;;;;;37.03;18.42;;;;;;;6.85;100.00;98863.88;5014580;28;20060;-78
2023/12/13 06:01:13;;;;;;;33.78;17.35;;;;;;;6.81;100.00;98877.50;4992207;28;20112;-76
2023/12/13 06:03:40;;;;;;;34.65;17.80;;;;;;;6.82;100.00;98884.75;4988191;28;20030;-78
2023/12/13 06:06:07;;;;;;;34.38;16.27;;;;;;;6.82;100.00;98878.28;4972318;28;20044;-79
2023/12/13 06:08:33;;;;;;;31.58;15.98;;;;;;;6.84;100.00;98881.38;4997908;28;20080;-77
2023/12/13 06:11:00;;;;;;;38.50;16.55;;;;;;;6.85;100.00;98878.06;5013579;28;20125;-78
2023/12/13 06:13:26;;;;;;;33.75;16.88;;;;;;;6.86;100.00;98873.94;5015242;28;20049;-76
2023/12/13 06:15:52;;;;;;;34.78;15.55;;;;;;;6.88;100.00;98859.25;4989747;28;20385;-78
2023/12/13 06:18:26;;;;;;;31.05;14.75;;;;;;;6.92;100.00;98862.63;4974856;28;20034;-75
2023/12/13 06:20:54;;;;;;;32.45;14.98;;;;;;;6.91;100.00;98869.59;4976304;28;20432;-75
2023/12/13 06:23:21;;;;;;;24.67;14.75;;;;;;;6.89;100.00;98866.47;4977570;28;20072;-77
2023/12/13 06:25:46;;;;;;;25.58;13.88;;;;;;;6.89;100.00;98864.41;4976346;28;20019;-77
2023/12/13 06:28:14;;;;;;;33.30;14.48;;;;;;;6.89;100.00;98857.94;4974674;28;20384;-76
2023/12/13 06:30:40;;;;;;;26.45;13.80;;;;;;;6.89;100.00;98855.09;4976414;28;20118;-77
2023/12/13 06:33:07;;;;;;;29.33;13.98;;;;;;;6.87;100.00;98849.94;4974924;28;20038;-77
2023/12/13 06:35:33;;;;;;;31.15;14.23;;;;;;;6.92;100.00;98846.38;4974834;28;20115;-76
2023/12/13 06:37:58;;;;;;;33.42;14.55;;;;;;;6.93;100.00;98850.75;4974717;28;20492;-76
2023/12/13 06:40:24;;;;;;;26.10;13.63;;;;;;;6.90;100.00;98868.03;4974616;28;20072;-76
2023/12/13 06:42:51;;;;;;;32.33;14.35;;;;;;;6.83;100.00;98862.81;4975915;28;20508;-77
2023/12/13 06:45:16;;;;;;;28.42;13.80;;;;;;;6.81;100.00;98857.63;4958234;28;20361;-76
2023/12/13 06:47:43;;;;;;;29.95;14.43;;;;;;;6.84;100.00;98861.50;4975598;28;20042;-79
2023/12/13 06:50:10;;;;;;;25.88;13.32;;;;;;;6.86;100.00;98856.13;4975652;28;20041;-78
2023/12/13 06:52:35;;;;;;;29.60;12.30;;;;;;;6.92;100.00;98851.28;4975612;28;20085;-78
2023/12/13 06:55:01;;;;;;;26.10;11.52;;;;;;;6.99;100.00;98865.78;4975201;28;20039;-79
2023/12/13 06:57:27;;;;;;;28.63;13.27;;;;;;;6.98;100.00;98864.22;4975700;28;20074;-79
2023/12/13 06:59:53;;;;;;;26.00;12.40;;;;;;;7.00;100.00;98853.16;4976333;28;20062;-78
2023/12/13 07:02:19;;;;;;;21.75;12.35;;;;;;;6.98;100.00;98863.44;4975409;28;20054;-80
2023/12/13 07:04:45;;;;;;;24.88;12.43;;;;;;;6.99;100.00;98865.00;4975270;28;20113;-79
2023/12/13 07:07:15;;;;;;;22.20;12.70;;;;;;;7.01;100.00;98863.22;4975678;28;20046;-78
2023/12/13 07:09:53;;;;;;;25.17;12.57;;;;;;;7.02;100.00;98861.19;4973729;28;20022;-79
2023/12/13 07:12:20;;;;;;;23.60;11.75;;;;;;;7.01;100.00;98860.41;4989141;28;20033;-78
2023/12/13 07:14:47;;;;;;;25.75;11.00;;;;;;;7.04;100.00;98865.06;4974022;28;20035;-79
2023/12/13 07:17:20;;;;;;;25.25;11.40;;;;;;;7.07;100.00;98860.44;4973385;28;20043;-77
2023/12/13 07:20:01;;;;;;;26.20;12.70;;;;;;;7.11;100.00;98860.97;4974187;28;20034;-79
2023/12/13 07:22:38;;;;;;;23.38;12.23;;;;;;;7.19;100.00;98859.22;4978276;28;20037;-78
2023/12/13 07:25:06;;;;;;;28.15;11.48;;;;;;;7.19;100.00;98862.06;4974127;28;20027;-77
2023/12/13 07:27:33;;;;;;;28.15;12.73;;;;;;;7.19;100.00;98862.06;4974040;28;20413;-78
2023/12/13 07:29:59;;;;;;;27.33;12.70;;;;;;;7.22;100.00;98854.63;4957172;28;20081;-79
2023/12/13 07:32:26;;;;;;;23.52;11.77;;;;;;;7.25;100.00;98854.38;4973361;28;20431;-77
2023/12/13 07:34:51;;;;;;;25.25;11.27;;;;;;;7.25;100.00;98845.84;4975254;28;20191;-77
2023/12/13 07:37:18;;;;;;;24.08;12.07;;;;;;;7.24;100.00;98843.50;4975253;28;20223;-79
2023/12/13 07:39:45;;;;;;;20.23;11.02;;;;;;;7.31;100.00;98849.50;4975016;28;20038;-79
2023/12/13 07:42:10;;;;;;;27.98;13.23;;;;;;;7.33;100.00;98846.16;4989885;28;20444;-78
2023/12/13 07:44:37;;;;;;;29.58;12.63;;;;;;;7.33;100.00;98844.09;4974725;28;20116;-78
2023/12/13 07:47:05;;;;;;;29.45;13.90;;;;;;;7.38;100.00;98846.19;4973913;28;20448;-79
2023/12/13 07:49:31;;;;;;;27.17;12.80;;;;;;;7.38;100.00;98837.66;4975954;28;20041;-81
2023/12/13 07:52:06;;;;;;;32.38;14.60;;;;;;;7.39;100.00;98841.28;4974487;28;20035;-81
2023/12/13 07:54:33;;;;;;;29.15;14.05;;;;;;;7.37;100.00;98838.94;4973645;28;20026;-82
2023/12/13 07:56:59;;;;;;;33.03;16.98;;;;;;;7.39;100.00;98836.38;4973454;28;20039;-81
2023/12/13 07:59:24;;;;;;;36.88;16.92;;;;;;;7.36;100.00;98848.00;4957375;28;20125;-81
2023/12/13 08:01:50;;;;;;;27.38;15.60;;;;;;;7.37;100.00;98846.72;4974279;28;20049;-82
2023/12/13 08:04:20;;;;;;;33.47;17.77;;;;;;;7.35;100.00;98835.84;4973224;28;20332;-82
2023/12/13 08:06:48;;;;;;;32.10;17.00;;;;;;;7.41;100.00;98838.72;4973436;28;20128;-83
2023/12/13 08:09:15;;;;;;;34.55;17.65;;;;;;;7.48;100.00;98847.53;4973081;28;20086;-82
2023/12/13 08:11:43;;;;;;;33.65;18.00;;;;;;;7.48;100.00;98847.53;4972747;28;20089;-81
2023/12/13 08:14:08;;;;;;;28.95;17.70;;;;;;;7.49;100.00;98834.91;4975694;28;20384;-82
2023/12/13 08:16:34;;;;;;;30.33;18.13;;;;;;;7.58;100.00;98836.75;4974541;28;20045;-82
2023/12/13 08:19:01;;;;;;;37.22;18.80;;;;;;;7.62;100.00;98845.81;4974391;28;20057;-82
2023/12/13 08:21:28;;;;;;;35.15;19.38;;;;;;;7.56;100.00;98830.03;4974337;28;20126;-82
2023/12/13 08:23:54;;;;;;;41.45;20.42;;;;;;;7.59;100.00;98829.78;4974039;28;20031;-80
2023/12/13 08:26:20;;;;;;;43.55;21.52;;;;;;;7.70;100.00;98834.75;4973720;28;20074;-81
2023/12/13 08:28:46;;;;;;;38.70;19.95;;;;;;;7.69;100.00;98839.66;4974131;28;20506;-81
2023/12/13 08:31:13;;;;;;;37.80;19.85;;;;;;;7.67;100.00;98832.94;4973017;28;20030;-81
2023/12/13 08:33:50;;;;;;;37.65;20.13;;;;;;;7.74;100.00;98823.91;4956812;28;20499;-82
2023/12/13 08:36:17;;;;;;;39.47;19.83;;;;;;;7.71;100.00;98827.78;4972879;28;20555;-82
2023/12/13 08:38:51;;;;;;;40.88;20.33;;;;;;;7.74;100.00;98829.59;4974037;28;20053;-82
2023/12/13 08:41:18;;;;;;;41.13;20.30;;;;;;;7.74;100.00;98827.53;4974431;28;20473;-81
2023/12/13 08:43:44;;;;;;;34.35;19.35;;;;;;;7.74;100.00;98826.75;4957352;28;20039;-82
2023/12/13 08:46:10;;;;;;;37.40;19.95;;;;;;;7.71;100.00;98819.25;4978114;28;20042;-81
2023/12/13 08:48:36;;;;;;;42.88;20.10;;;;;;;7.84;100.00;98822.41;4977302;28;20047;-80
2023/12/13 08:51:02;;;;;;;38.30;19.83;;;;;;;7.88;100.00;98818.03;4977993;28;20355;-82
2023/12/13 08:53:29;;;;;;;32.78;18.45;;;;;;;7.97;100.00;98829.19;4978104;28;20034;-82
2023/12/13 08:55:56;;;;;;;39.03;19.38;;;;;;;8.08;100.00;98825.59;4976862;28;20029;-80
2023/12/13 08:58:22;;;;;;;37.63;19.35;;;;;;;8.14;100.00;98831.31;4978107;28;20093;-81
2023/12/13 09:00:48;;;;;;;34.42;19.30;;;;;;;8.22;100.00;98830.31;4978215;28;20423;-81
2023/12/13 09:03:13;;;;;;;40.22;18.98;;;;;;;8.25;100.00;98820.78;4976649;28;20473;-80
2023/12/13 09:05:39;;;;;;;38.45;19.50;;;;;;;8.33;100.00;98824.66;4976221;28;20041;-81
2023/12/13 09:08:06;;;;;;;41.40;18.35;;;;;;;8.38;100.00;98838.13;4976817;28;20058;-83
2023/12/13 09:10:34;;;;;;;36.88;20.20;;;;;;;8.37;100.00;98830.09;4978020;28;20026;-82
2023/12/13 09:13:09;;;;;;;45.33;19.88;;;;;;;8.46;100.00;98831.97;4977296;28;20035;-83
2023/12/13 09:15:35;;;;;;;37.10;19.15;;;;;;;8.43;100.00;98827.28;4977697;28;20030;-84
2023/12/13 09:18:01;;;;;;;33.63;19.00;;;;;;;8.52;100.00;98829.88;4977981;28;20337;-82
2023/12/13 09:20:27;;;;;;;31.42;18.80;;;;;;;8.53;100.00;98826.53;4977630;28;20061;-82
2023/12/13 09:22:53;;;;;;;38.40;20.00;;;;;;;8.60;100.00;98823.19;4944919;28;20501;-82
2023/12/13 09:25:21;;;;;;;44.20;20.48;;;;;;;8.64;100.00;98832.25;4959627;28;20130;-82
2023/12/13 09:27:49;;;;;;;36.42;18.50;;;;;;;8.60;100.00;98830.94;4977412;28;20053;-82
2023/12/13 09:30:14;;;;;;;35.28;19.05;;;;;;;8.56;100.00;98824.72;4977470;28;20110;-80
2023/12/13 09:32:46;;;;;;;38.53;19.67;;;;;;;8.60;100.00;98836.63;4977363;28;20069;-82
2023/12/13 09:35:12;;;;;;;36.95;18.90;;;;;;;8.64;100.00;98837.16;4977388;28;20018;-82
2023/12/13 09:37:41;;;;;;;33.22;18.60;;;;;;;8.68;100.00;98835.59;4976354;28;20090;-83
2023/12/13 09:40:14;;;;;;;42.95;19.48;;;;;;;8.69;100.00;98833.53;4977466;28;20035;-83
2023/12/13 09:42:43;;;;;;;42.58;20.00;;;;;;;8.80;100.00;98833.56;4976371;28;20039;-82
2023/12/13 09:45:22;;;;;;;43.28;19.23;;;;;;;8.84;100.00;98831.22;4975997;28;20080;-82
2023/12/13 09:47:49;;;;;;;39.72;19.48;;;;;;;8.92;100.00;98837.94;4979782;28;20031;-81
2023/12/13 09:50:17;;;;;;;39.58;17.92;;;;;;;8.99;100.00;98834.59;4978936;28;20038;-82
2023/12/13 09:52:44;;;;;;;34.03;20.00;;;;;;;9.01;100.00;98829.13;4963850;28;20034;-82
2023/12/13 09:55:14;;;;;;;35.20;18.67;;;;;;;9.11;100.00;98821.88;4980776;28;20031;-83
2023/12/13 09:57:39;;;;;;;35.50;17.92;;;;;;;9.23;100.00;98820.59;4981931;28;20473;-82
2023/12/13 10:00:05;;;;;;;34.72;18.27;;;;;;;9.21;100.00;98820.31;4982208;28;20049;-82
2023/12/13 10:02:36;;;;;;;34.20;17.73;;;;;;;9.16;100.00;98823.94;4983251;28;20027;-82
2023/12/13 10:05:05;;;;;;;34.63;18.63;;;;;;;9.12;100.00;98823.44;4980673;28;20034;-81
2023/12/13 10:07:31;;;;;;;37.47;19.70;;;;;;;9.15;100.00;98813.09;4975554;28;20023;-81
2023/12/13 10:09:57;;;;;;;40.00;18.75;;;;;;;9.15;100.00;98813.09;4959354;28;20027;-81
2023/12/13 10:12:32;;;;;;;34.75;19.05;;;;;;;9.16;100.00;98809.69;4991407;28;20457;-81
2023/12/13 10:15:14;;;;;;;31.33;17.77;;;;;;;9.14;100.00;98805.84;4976955;28;20042;-83
2023/12/13 10:17:40;;;;;;;32.85;16.67;;;;;;;9.33;100.00;98809.69;4975161;28;20055;-81
2023/12/13 10:20:07;;;;;;;40.25;19.15;;;;;;;9.31;100.00;98808.63;4975717;28;20022;-82
2023/12/13 10:22:34;;;;;;;33.85;19.35;;;;;;;9.22;100.00;98801.94;4975369;28;20077;-82
2023/12/13 10:25:02;;;;;;;32.45;18.33;;;;;;;9.21;100.00;98811.75;4975276;28;20443;-84
2023/12/13 10:27:28;;;;;;;34.58;17.15;;;;;;;9.21;100.00;98806.06;4976958;28;20053;-83
2023/12/13 10:30:04;;;;;;;34.92;19.95;;;;;;;9.15;100.00;98801.69;4976549;28;20045;-83
2023/12/13 10:32:32;;;;;;;32.45;18.92;;;;;;;9.13;100.00;98793.66;4977615;28;20085;-83
2023/12/13 10:34:59;;;;;;;38.42;20.85;;;;;;;9.07;100.00;98780.69;4976582;28;20030;-81
2023/12/13 10:37:27;;;;;;;33.95;20.13;;;;;;;8.98;100.00;98776.06;4975308;28;20053;-83
2023/12/13 10:40:03;;;;;;;36.40;20.25;;;;;;;9.00;100.00;98787.69;4975505;28;20424;-83
2023/12/13 10:42:37;;;;;;;38.10;20.50;;;;;;;8.92;100.00;98785.88;4976080;28;20464;-82
2023/12/13 10:45:05;;;;;;;37.42;19.33;;;;;;;8.87;100.00;98783.81;4974783;28;20026;-82
2023/12/13 10:47:54;;;;;;;40.63;20.77;;;;;;;8.72;100.00;98776.31;4975791;28;20061;-81
2023/12/13 10:50:41;;;;;;;39.00;22.42;;;;;;;8.60;100.00;98782.53;4974469;28;20027;-82
2023/12/13 10:53:07;;;;;;;41.35;21.95;;;;;;;8.60;100.00;98779.69;4975701;28;20070;-81
2023/12/13 10:55:33;;;;;;;44.72;23.92;;;;;;;8.54;100.00;98776.06;4958466;28;20477;-82
2023/12/13 10:57:59;;;;;;;38.47;22.70;;;;;;;8.53;100.00;98780.19;4990916;28;20103;-81
2023/12/13 11:00:34;;;;;;;42.47;22.90;;;;;;;8.56;100.00;98784.88;4974448;28;20023;-81
2023/12/13 11:03:02;;;;;;;40.83;22.15;;;;;;;8.46;100.00;98775.03;4974697;28;20361;-82
2023/12/13 11:05:33;;;;;;;42.90;24.20;;;;;;;8.40;100.00;98777.88;4974430;28;20135;-81
2023/12/13 11:07:59;;;;;;;39.50;22.40;;;;;;;8.32;100.00;98771.88;4957441;28;20062;-82
2023/12/13 11:10:25;;;;;;;43.97;24.48;;;;;;;8.29;100.00;98780.69;4975523;28;20018;-82
2023/12/13 11:12:53;;;;;;;47.88;24.65;;;;;;;8.25;100.00;98766.72;4975359;28;20030;-81
2023/12/13 11:15:27;;;;;;;56.83;26.00;;;;;;;8.27;100.00;98786.09;4990239;28;20439;-82
2023/12/13 11:17:59;;;;;;;46.58;26.48;;;;;;;8.22;100.00;98787.66;4973844;28;20073;-83
2023/12/13 11:20:26;;;;;;;49.15;24.73;;;;;;;8.12;100.00;98768.44;4974034;28;20123;-82